Time;durP1;ratioP1;P1;durP2;ratioP2;P2;SDS_P1;SDS_P2;PMS_P1;PMS_P2;Temp;Humidity;BMP_temperature;BMP_pressure;BME280_temperature;BME280_humidity;BME280_pressure;Samples;Min_cycle;Max_cycle;Signal;HPM_P1;HPM_P2
2021/12/29 00:00:49;;;;;;;15.65;6.72;;;;;;;5.79;61.57;97688.97;4503297;31;20478;-81
2021/12/29 00:03:15;;;;;;;14.43;6.20;;;;;;;5.77;61.85;97690.00;4503088;31;20420;-81
2021/12/29 00:05:41;;;;;;;14.82;6.12;;;;;;;5.68;62.17;97684.34;4488725;31;20155;-81
2021/12/29 00:08:07;;;;;;;14.18;5.87;;;;;;;5.71;62.09;97688.56;4488862;31;20088;-81
2021/12/29 00:10:32;;;;;;;13.02;5.22;;;;;;;5.65;62.32;97688.88;4503079;31;20091;-81
2021/12/29 00:12:58;;;;;;;12.23;5.75;;;;;;;5.62;62.51;97692.50;4503160;31;20135;-82
2021/12/29 00:15:25;;;;;;;14.87;6.40;;;;;;;5.61;62.49;97688.19;4503213;31;20363;-82
2021/12/29 00:17:51;;;;;;;14.07;6.07;;;;;;;5.54;62.75;97702.47;4503274;31;20084;-82
2021/12/29 00:20:19;;;;;;;14.43;6.43;;;;;;;5.59;62.43;97697.03;4503241;31;20088;-82
2021/12/29 00:22:45;;;;;;;15.88;6.47;;;;;;;5.57;62.60;97706.72;4475701;31;20122;-82
2021/12/29 00:25:12;;;;;;;15.25;6.57;;;;;;;5.41;63.00;97698.81;4503253;31;20088;-82
2021/12/29 00:27:37;;;;;;;14.45;5.95;;;;;;;5.62;62.54;97683.78;4488790;31;20092;-82
2021/12/29 00:30:07;;;;;;;15.60;6.40;;;;;;;5.64;62.62;97684.56;4503407;31;20122;-82
2021/12/29 00:32:32;;;;;;;13.95;6.75;;;;;;;5.62;62.50;97675.97;4503477;31;20443;-82
2021/12/29 00:34:58;;;;;;;19.95;7.20;;;;;;;5.61;62.62;97674.28;4489059;31;20080;-82
2021/12/29 00:37:25;;;;;;;16.40;6.93;;;;;;;5.57;62.71;97678.00;4503228;31;20124;-82
2021/12/29 00:39:51;;;;;;;15.77;7.32;;;;;;;5.55;62.77;97675.44;4488963;31;20099;-82
2021/12/29 00:42:18;;;;;;;15.77;6.82;;;;;;;5.51;62.97;97680.00;4502970;31;20083;-82
2021/12/29 00:44:43;;;;;;;18.50;7.05;;;;;;;5.51;63.05;97681.75;4488585;31;20118;-82
2021/12/29 00:47:13;;;;;;;16.70;7.05;;;;;;;5.57;62.94;97683.22;4503083;31;20080;-82
2021/12/29 00:49:40;;;;;;;18.45;7.53;;;;;;;5.58;62.83;97675.31;4488740;31;20806;-82
2021/12/29 00:52:07;;;;;;;16.50;6.60;;;;;;;5.54;62.92;97678.97;4503040;31;20126;-82
2021/12/29 00:54:34;;;;;;;16.62;6.82;;;;;;;5.61;62.68;97669.06;4488796;31;20730;-81
2021/12/29 00:57:00;;;;;;;15.45;6.55;;;;;;;5.56;62.68;97671.06;4503011;31;20076;-82
2021/12/29 00:59:26;;;;;;;16.67;6.45;;;;;;;5.62;62.59;97669.00;4488576;31;20499;-82
2021/12/29 01:01:52;;;;;;;20.52;7.10;;;;;;;5.61;62.49;97675.13;4502787;31;20096;-82
2021/12/29 01:04:18;;;;;;;15.50;6.03;;;;;;;5.66;62.29;97669.66;4488583;31;20088;-82
2021/12/29 01:06:44;;;;;;;14.98;6.57;;;;;;;5.59;62.34;97663.06;4502881;31;20123;-82
2021/12/29 01:09:10;;;;;;;16.90;7.10;;;;;;;5.56;62.45;97664.06;4502801;31;20160;-82
2021/12/29 01:11:36;;;;;;;17.20;7.20;;;;;;;5.45;62.71;97654.19;4502762;31;20107;-82
2021/12/29 01:14:03;;;;;;;17.70;6.97;;;;;;;5.49;62.64;97655.72;4488516;31;20080;-82
2021/12/29 01:19:03;;;;;;;16.98;7.53;;;;;;;5.53;62.66;97651.19;4502753;31;20562;-82
2021/12/29 01:21:28;;;;;;;18.23;7.57;;;;;;;5.51;62.71;97653.03;4502759;31;20470;-82
2021/12/29 01:23:54;;;;;;;19.27;8.07;;;;;;;5.49;62.48;97654.88;4502710;31;20084;-82
2021/12/29 01:26:19;;;;;;;17.25;7.00;;;;;;;5.46;62.64;97648.03;4502591;31;20077;-83
2021/12/29 01:28:45;;;;;;;283.02;25.33;;;;;;;5.40;62.72;97656.19;4502751;31;20199;-82
2021/12/29 01:31:10;;;;;;;16.85;7.35;;;;;;;5.15;62.61;97645.31;4488211;31;20084;-82
2021/12/29 01:33:36;;;;;;;18.52;7.62;;;;;;;5.31;62.45;97647.06;4502519;31;20084;-82
2021/12/29 01:36:01;;;;;;;18.55;7.18;;;;;;;5.38;62.37;97641.53;4502558;31;20083;-82
2021/12/29 01:38:27;;;;;;;23.67;8.27;;;;;;;5.30;62.59;97639.31;4501758;31;20100;-82
2021/12/29 01:40:52;;;;;;;27.95;9.32;;;;;;;5.06;63.30;97636.19;4502391;31;20360;-82
2021/12/29 01:43:18;;;;;;;19.40;7.47;;;;;;;5.30;62.74;97644.53;4502279;31;20088;-80
2021/12/29 01:45:44;;;;;;;24.37;8.13;;;;;;;5.32;62.44;97647.91;4502404;31;20110;-82
2021/12/29 01:48:10;;;;;;;180.23;17.70;;;;;;;5.41;62.26;97644.84;4502344;31;20096;-82
2021/12/29 01:50:38;;;;;;;35.92;9.18;;;;;;;5.41;62.16;97652.66;4474831;31;20119;-82
2021/12/29 01:53:08;;;;;;;22.13;7.78;;;;;;;5.17;62.77;97662.59;4502404;31;20084;-83
2021/12/29 01:55:35;;;;;;;23.33;8.73;;;;;;;5.30;62.64;97655.81;4488460;31;20072;-83
2021/12/29 01:58:01;;;;;;;23.73;7.90;;;;;;;5.32;62.58;97659.19;4502388;31;20118;-83
2021/12/29 02:00:29;;;;;;;18.87;8.32;;;;;;;5.31;62.59;97662.75;4502304;31;20088;-83
2021/12/29 02:02:55;;;;;;;18.85;8.73;;;;;;;5.27;62.49;97663.81;4502087;31;20083;-83
2021/12/29 02:05:20;;;;;;;25.05;9.05;;;;;;;5.28;62.73;97664.66;4502177;31;20102;-83
2021/12/29 02:07:46;;;;;;;21.70;8.57;;;;;;;5.29;62.78;97672.44;4502089;31;20144;-83
2021/12/29 02:10:14;;;;;;;86.68;12.30;;;;;;;5.24;63.03;97674.41;4487709;31;20118;-83
2021/12/29 02:12:39;;;;;;;20.52;8.25;;;;;;;5.25;63.08;97676.13;4502164;31;20088;-83
2021/12/29 02:15:06;;;;;;;24.50;8.57;;;;;;;5.32;62.93;97674.03;4487699;31;20129;-83
2021/12/29 02:17:32;;;;;;;21.23;8.95;;;;;;;5.19;63.15;97680.78;4502050;31;20100;-83
2021/12/29 02:20:02;;;;;;;22.55;8.15;;;;;;;5.32;62.75;97679.25;4501978;31;20115;-83
2021/12/29 02:22:42;;;;;;;34.28;9.57;;;;;;;5.29;62.92;97671.56;4501819;31;20143;-83
2021/12/29 02:27:44;;;;;;;31.75;10.10;;;;;;;5.24;63.11;97682.25;4501919;31;20096;-83
2021/12/29 02:30:11;;;;;;;21.00;8.55;;;;;;;5.25;63.15;97673.50;4487782;31;20473;-82
2021/12/29 02:32:36;;;;;;;21.33;8.00;;;;;;;5.26;63.33;97669.13;4502018;31;20092;-82
2021/12/29 02:35:03;;;;;;;25.12;9.57;;;;;;;5.34;63.22;97673.94;4501944;31;20460;-82
2021/12/29 02:37:28;;;;;;;29.90;9.05;;;;;;;5.39;63.09;97677.16;4501800;31;20088;-83
2021/12/29 02:39:54;;;;;;;74.35;11.95;;;;;;;5.43;62.90;97683.94;4501673;31;20137;-82
2021/12/29 02:42:24;;;;;;;22.92;9.05;;;;;;;5.41;62.97;97673.56;4487184;31;20127;-83
2021/12/29 02:44:51;;;;;;;46.75;10.07;;;;;;;5.42;62.78;97669.16;4501357;31;20123;-83
2021/12/29 02:47:17;;;;;;;34.97;9.27;;;;;;;5.22;63.37;97663.22;4501749;31;20441;-82
2021/12/29 02:49:45;;;;;;;34.92;9.95;;;;;;;5.32;63.01;97668.81;4501756;31;20111;-82
2021/12/29 02:52:11;;;;;;;71.37;11.80;;;;;;;5.22;63.29;97673.66;4503950;31;20167;-82
2021/12/29 02:54:37;;;;;;;55.33;11.35;;;;;;;5.00;63.92;97673.88;4489468;31;20135;-82
2021/12/29 02:57:03;;;;;;;92.62;13.32;;;;;;;5.04;63.88;97682.41;4503863;31;20100;-82
2021/12/29 02:59:28;;;;;;;23.23;8.70;;;;;;;5.04;63.79;97679.78;4503623;31;20364;-83
2021/12/29 03:01:54;;;;;;;96.28;14.87;;;;;;;5.12;63.63;97678.50;4503453;31;20077;-82
2021/12/29 03:04:19;;;;;;;26.55;9.65;;;;;;;5.15;63.64;97681.88;4503726;31;20144;-82
2021/12/29 03:06:44;;;;;;;141.35;16.37;;;;;;;5.15;63.65;97679.25;4503725;31;20152;-82
2021/12/29 03:09:12;;;;;;;185.77;18.80;;;;;;;5.02;64.20;97677.28;4489234;31;20088;-83
2021/12/29 03:11:40;;;;;;;;;;;;;;;4.90;64.38;97677.88;4503992;31;20092;-82
2021/12/29 03:14:06;;;;;;;33.47;10.02;;;;;;;4.78;64.69;97681.94;4503685;31;19971;-82
2021/12/29 03:16:34;;;;;;;35.15;9.48;;;;;;;4.78;64.49;97683.69;4503500;31;20123;-82
2021/12/29 03:19:02;;;;;;;99.00;13.93;;;;;;;4.91;64.47;97677.78;4503707;31;20108;-83
2021/12/29 03:21:30;;;;;;;82.65;12.88;;;;;;;4.87;64.79;97673.66;4489464;31;20450;-82
2021/12/29 03:23:56;;;;;;;;;;;;;;;4.93;64.66;97670.72;4504140;31;20088;-82
2021/12/29 03:26:21;;;;;;;34.90;9.55;;;;;;;4.88;64.59;97664.88;4489228;31;19998;-82
2021/12/29 03:28:47;;;;;;;31.55;10.38;;;;;;;4.95;64.69;97665.44;4489469;31;20100;-82
2021/12/29 03:31:15;;;;;;;103.40;14.25;;;;;;;5.00;64.50;97653.00;4503693;31;20084;-85
2021/12/29 03:33:43;;;;;;;102.60;13.35;;;;;;;4.92;64.85;97656.00;4489586;31;20128;-84
2021/12/29 03:36:09;;;;;;;33.88;9.85;;;;;;;4.85;64.88;97662.44;4503761;31;20153;-84
2021/12/29 03:38:37;;;;;;;218.02;20.92;;;;;;;4.61;65.83;97655.81;4489285;31;20407;-85
2021/12/29 03:41:04;;;;;;;84.62;12.63;;;;;;;4.57;65.88;97662.09;4503756;31;20106;-85
2021/12/29 03:43:32;;;;;;;162.60;16.17;;;;;;;4.68;65.70;97668.50;4503378;31;20076;-85
2021/12/29 03:45:58;;;;;;;76.95;11.70;;;;;;;4.57;65.21;97657.72;4489563;31;20099;-85
2021/12/29 03:48:26;;;;;;;34.65;9.18;;;;;;;4.70;65.62;97655.38;4503584;31;20166;-85
2021/12/29 03:50:52;;;;;;;66.65;11.32;;;;;;;4.46;66.25;97662.59;4489198;31;20110;-84
2021/12/29 03:53:17;;;;;;;35.47;9.38;;;;;;;4.67;66.04;97666.78;4503527;31;20367;-85
2021/12/29 03:55:44;;;;;;;43.10;10.60;;;;;;;4.71;65.92;97672.69;4489028;31;20092;-85
2021/12/29 03:58:10;;;;;;;34.97;9.65;;;;;;;4.66;66.13;97675.53;4503540;31;20130;-85
2021/12/29 04:00:37;;;;;;;167.73;17.55;;;;;;;4.71;66.05;97683.13;4503168;31;20092;-84
2021/12/29 04:03:03;;;;;;;34.30;9.80;;;;;;;4.72;65.81;97685.69;4488983;31;20098;-85
2021/12/29 04:05:29;;;;;;;30.05;9.50;;;;;;;4.76;65.65;97681.16;4503314;31;20119;-85
2021/12/29 04:07:56;;;;;;;33.70;9.65;;;;;;;4.72;65.77;97684.84;4503256;31;20458;-85
2021/12/29 04:10:22;;;;;;;90.43;14.18;;;;;;;4.87;65.54;97672.81;4503275;31;20554;-85
2021/12/29 04:12:48;;;;;;;37.40;10.10;;;;;;;4.96;65.31;97679.34;4503214;31;20096;-85
2021/12/29 04:15:15;;;;;;;101.40;13.40;;;;;;;4.96;65.23;97676.72;4488683;31;20342;-85
2021/12/29 04:17:41;;;;;;;163.80;17.73;;;;;;;4.67;65.50;97684.22;4489066;31;20151;-85
2021/12/29 04:23:01;;;;;;;31.50;9.32;;;;;;;4.88;65.34;97677.09;4490913;31;20097;-85
2021/12/29 04:25:27;;;;;;;39.88;10.55;;;;;;;4.93;65.28;97683.78;4503029;31;20108;-85
2021/12/29 04:27:57;;;;;;;50.55;11.00;;;;;;;4.87;65.34;97686.69;4503226;31;20118;-85
2021/12/29 04:30:24;;;;;;;119.43;13.48;;;;;;;4.89;65.32;97687.47;4503108;31;20563;-85
2021/12/29 04:32:52;;;;;;;29.50;9.70;;;;;;;4.82;65.46;97699.13;4503017;31;20103;-85
2021/12/29 04:35:17;;;;;;;27.75;9.65;;;;;;;4.87;65.44;97699.75;4503331;31;20096;-85
2021/12/29 04:37:43;;;;;;;29.85;9.18;;;;;;;4.93;65.50;97696.00;4503014;31;20136;-85
2021/12/29 04:40:09;;;;;;;24.25;7.82;;;;;;;5.08;65.09;97695.25;4502998;31;20084;-85
2021/12/29 04:42:35;;;;;;;25.52;8.75;;;;;;;5.18;64.78;97697.41;4502926;31;20072;-85
2021/12/29 04:45:00;;;;;;;22.95;8.57;;;;;;;5.18;64.48;97695.62;4502795;31;20115;-84
2021/12/29 04:47:29;;;;;;;30.55;8.98;;;;;;;5.18;64.34;97689.56;4503062;31;20103;-85
2021/12/29 04:49:57;;;;;;;27.90;9.57;;;;;;;5.19;64.24;97697.28;4502977;31;20405;-84
2021/12/29 04:52:22;;;;;;;45.28;10.38;;;;;;;5.28;63.74;97696.00;4503107;31;20084;-85
2021/12/29 04:54:48;;;;;;;27.83;8.90;;;;;;;5.19;63.71;97699.91;4502929;31;20120;-85
2021/12/29 04:57:15;;;;;;;23.90;8.90;;;;;;;5.31;63.20;97698.44;4502859;31;20333;-85
2021/12/29 04:59:41;;;;;;;22.87;9.00;;;;;;;5.22;63.60;97699.75;4488855;31;20148;-85
2021/12/29 05:02:07;;;;;;;84.72;12.35;;;;;;;5.22;63.54;97696.31;4502785;31;20088;-84
2021/12/29 05:04:34;;;;;;;35.50;8.63;;;;;;;5.06;63.83;97696.22;4502733;31;20161;-85
2021/12/29 05:09:45;;;;;;;24.08;8.45;;;;;;;5.36;62.89;97699.06;4490700;31;20500;-85
2021/12/29 05:12:11;;;;;;;33.20;9.15;;;;;;;5.30;63.20;97704.59;4502155;31;20088;-85
2021/12/29 05:14:37;;;;;;;22.35;8.05;;;;;;;5.25;63.33;97699.63;4502325;31;20088;-85
2021/12/29 05:17:03;;;;;;;23.70;8.70;;;;;;;5.34;63.28;97703.50;4502720;31;20471;-85
2021/12/29 05:19:29;;;;;;;33.05;9.23;;;;;;;5.33;63.22;97693.97;4475163;31;20092;-85
2021/12/29 05:21:55;;;;;;;50.75;10.60;;;;;;;5.31;63.17;97703.66;4488303;31;20114;-85
2021/12/29 05:24:20;;;;;;;28.30;9.55;;;;;;;4.95;63.95;97695.94;4502660;31;20099;-85
2021/12/29 05:26:45;;;;;;;33.95;10.07;;;;;;;5.22;63.60;97699.75;4488363;31;20158;-85
2021/12/29 05:29:11;;;;;;;27.08;9.85;;;;;;;5.30;63.38;97704.59;4502622;31;20462;-85
2021/12/29 05:31:37;;;;;;;29.90;10.55;;;;;;;5.23;63.70;97695.38;4502604;31;20125;-85
2021/12/29 05:34:02;;;;;;;29.90;9.90;;;;;;;5.17;63.90;97706.97;4502612;31;20089;-85
2021/12/29 05:36:28;;;;;;;42.72;10.88;;;;;;;5.29;63.67;97710.72;4488132;31;20100;-85
2021/12/29 05:38:55;;;;;;;34.63;10.35;;;;;;;5.43;62.80;97712.66;4502454;31;20117;-85
2021/12/29 05:41:20;;;;;;;35.17;10.20;;;;;;;5.41;63.30;97720.56;4502541;31;20159;-85
2021/12/29 05:43:46;;;;;;;31.05;10.05;;;;;;;5.16;63.90;97713.13;4502292;31;20105;-85
2021/12/29 05:46:11;;;;;;;40.03;11.25;;;;;;;5.27;63.72;97721.28;4502400;31;20329;-85
2021/12/29 05:48:37;;;;;;;26.55;9.40;;;;;;;5.27;63.78;97728.25;4502436;31;20098;-85
2021/12/29 05:51:03;;;;;;;155.52;16.30;;;;;;;5.32;63.72;97729.69;4502308;31;20084;-85
2021/12/29 05:53:28;;;;;;;36.88;10.50;;;;;;;5.24;63.75;97723.19;4502269;31;20516;-85
2021/12/29 05:55:54;;;;;;;100.28;14.20;;;;;;;5.23;63.99;97726.72;4502285;31;20088;-84
2021/12/29 05:58:19;;;;;;;57.17;10.52;;;;;;;5.39;63.34;97732.00;4502208;31;20127;-85
2021/12/29 06:00:45;;;;;;;47.42;11.20;;;;;;;5.25;63.91;97730.94;4502185;31;20439;-85
2021/12/29 06:03:10;;;;;;;276.27;22.75;;;;;;;5.33;63.91;97730.53;4474477;31;20108;-85
2021/12/29 06:05:37;;;;;;;167.45;15.80;;;;;;;4.93;64.65;97729.94;4502049;31;20092;-85
2021/12/29 06:08:03;;;;;;;33.30;10.13;;;;;;;5.08;64.55;97729.19;4487804;31;20106;-85
2021/12/29 06:10:30;;;;;;;98.45;13.25;;;;;;;5.11;64.54;97725.56;4501954;31;20083;-85
2021/12/29 06:12:56;;;;;;;48.80;10.63;;;;;;;5.07;64.75;97726.62;4487833;31;20539;-85
2021/12/29 06:15:21;;;;;;;66.00;11.45;;;;;;;5.12;64.88;97729.87;4502015;31;20812;-85
2021/12/29 06:17:46;;;;;;;41.53;10.50;;;;;;;5.13;64.59;97729.78;4487623;31;20138;-85
2021/12/29 06:20:12;;;;;;;92.90;13.52;;;;;;;5.05;64.92;97731.09;4502006;31;20071;-84
2021/12/29 06:22:39;;;;;;;42.83;9.50;;;;;;;4.77;65.65;97729.81;4487490;31;20092;-85
2021/12/29 06:25:06;;;;;;;40.47;9.20;;;;;;;4.96;64.84;97731.53;4503336;31;20474;-85
2021/12/29 06:27:32;;;;;;;28.40;8.38;;;;;;;4.99;64.71;97747.06;4489555;31;20106;-84
2021/12/29 06:29:58;;;;;;;22.62;7.10;;;;;;;4.88;64.63;97742.34;4503887;31;20554;-84
2021/12/29 06:32:23;;;;;;;26.58;7.05;;;;;;;4.68;65.15;97744.13;4503968;31;20123;-84
2021/12/29 06:34:49;;;;;;;25.48;7.60;;;;;;;4.80;64.61;97740.09;4503744;31;20088;-84
2021/12/29 06:37:15;;;;;;;26.33;8.60;;;;;;;4.71;64.82;97740.53;4503862;31;20084;-85
2021/12/29 06:39:43;;;;;;;23.75;7.90;;;;;;;4.72;64.69;97739.63;4489568;31;20094;-83
2021/12/29 06:42:08;;;;;;;30.73;8.30;;;;;;;4.35;66.13;97746.56;4503705;31;20449;-84
2021/12/29 06:44:36;;;;;;;22.15;7.62;;;;;;;4.32;66.29;97751.91;4489427;31;20140;-84
2021/12/29 06:47:02;;;;;;;22.67;7.95;;;;;;;4.32;66.49;97744.09;4503893;31;20092;-85
2021/12/29 06:49:28;;;;;;;30.33;9.40;;;;;;;4.62;65.65;97751.44;4503913;31;20119;-85
2021/12/29 06:51:53;;;;;;;24.92;8.35;;;;;;;4.65;65.32;97749.50;4503811;31;20096;-84
2021/12/29 06:54:19;;;;;;;22.55;7.82;;;;;;;4.63;65.17;97756.53;4489341;31;20120;-84
2021/12/29 06:56:44;;;;;;;20.55;7.25;;;;;;;4.51;65.45;97772.78;4503684;31;20102;-85
2021/12/29 06:59:10;;;;;;;23.42;7.65;;;;;;;4.51;65.38;97771.00;4503612;31;20096;-85
2021/12/29 07:01:35;;;;;;;23.40;8.38;;;;;;;4.59;65.38;97768.03;4503609;31;20362;-84
2021/12/29 07:04:01;;;;;;;22.10;7.70;;;;;;;4.49;65.62;97767.63;4503662;31;20092;-84
2021/12/29 07:06:26;;;;;;;20.67;8.80;;;;;;;4.23;66.06;97767.97;4503590;31;20106;-85
2021/12/29 07:08:52;;;;;;;21.35;7.90;;;;;;;4.62;65.48;97759.25;4503467;31;20104;-84
2021/12/29 07:11:17;;;;;;;21.40;7.30;;;;;;;4.54;65.58;97767.44;4503506;31;20144;-85
2021/12/29 07:13:46;;;;;;;23.38;7.22;;;;;;;4.60;65.32;97766.31;4503505;31;20148;-84
2021/12/29 07:16:12;;;;;;;19.77;7.45;;;;;;;4.70;64.71;97760.56;4489253;31;20087;-85
2021/12/29 07:18:37;;;;;;;21.12;7.85;;;;;;;4.65;64.74;97767.75;4503537;31;20083;-84
2021/12/29 07:21:03;;;;;;;21.30;8.40;;;;;;;4.67;64.54;97775.50;4503550;31;20088;-85
2021/12/29 07:23:29;;;;;;;22.45;7.43;;;;;;;4.67;64.76;97772.91;4503538;31;20096;-84
2021/12/29 07:25:54;;;;;;;21.67;8.35;;;;;;;4.71;64.33;97777.06;4503445;31;20084;-84
2021/12/29 07:28:20;;;;;;;19.45;7.12;;;;;;;4.78;64.53;97790.69;4503477;31;20482;-85
2021/12/29 07:30:45;;;;;;;24.70;8.80;;;;;;;4.85;64.47;97792.91;4503491;31;20356;-85
2021/12/29 07:33:10;;;;;;;27.67;9.73;;;;;;;5.00;64.10;97785.25;4503386;31;20092;-85
2021/12/29 07:35:37;;;;;;;27.62;10.02;;;;;;;4.98;63.89;97794.94;4502838;31;20621;-84
2021/12/29 07:38:03;;;;;;;24.42;9.27;;;;;;;4.96;63.82;97792.41;4489115;31;20376;-84
2021/12/29 07:40:28;;;;;;;91.10;13.65;;;;;;;4.82;64.31;97808.72;4503311;31;20100;-84
2021/12/29 07:42:54;;;;;;;29.90;9.18;;;;;;;4.29;66.29;97814.66;4503270;31;20439;-85
2021/12/29 07:45:19;;;;;;;65.80;11.75;;;;;;;4.75;65.15;97809.91;4503258;31;20507;-84
2021/12/29 07:47:47;;;;;;;28.65;9.35;;;;;;;4.98;64.56;97806.22;4503405;31;20064;-85
2021/12/29 07:50:16;;;;;;;;;;;;;;;5.15;64.04;97817.62;4503699;31;20114;-84
2021/12/29 07:52:41;;;;;;;29.65;10.25;;;;;;;5.08;64.06;97822.28;4503560;31;19983;-85
2021/12/29 07:55:07;;;;;;;30.20;9.70;;;;;;;5.25;63.75;97818.88;4503209;31;20088;-84
2021/12/29 07:57:33;;;;;;;26.52;9.95;;;;;;;5.30;63.37;97814.28;4503423;31;20113;-84
2021/12/29 07:59:58;;;;;;;24.83;9.55;;;;;;;5.20;63.46;97807.81;4503376;31;20147;-85
2021/12/29 08:02:27;;;;;;;24.27;9.40;;;;;;;5.37;63.40;97812.19;4503158;31;20118;-85
2021/12/29 08:04:58;;;;;;;19.67;7.00;;;;;;;5.36;63.52;97813.97;4503278;31;20345;-82
2021/12/29 08:07:25;;;;;;;18.95;6.87;;;;;;;5.27;63.07;97807.44;4503348;31;20111;-85
2021/12/29 08:09:51;;;;;;;16.10;6.28;;;;;;;5.43;62.61;97804.91;4489410;31;20142;-85
2021/12/29 08:12:16;;;;;;;18.05;7.15;;;;;;;5.50;62.20;97808.94;4503686;31;20119;-84
2021/12/29 08:14:43;;;;;;;20.02;6.95;;;;;;;5.54;62.40;97806.13;4489009;31;20140;-84
2021/12/29 08:17:09;;;;;;;17.98;7.57;;;;;;;5.75;62.28;97822.50;4503484;31;20115;-84
2021/12/29 08:19:34;;;;;;;18.15;6.90;;;;;;;5.72;62.26;97821.75;4489045;31;20099;-83
2021/12/29 08:22:00;;;;;;;19.98;7.85;;;;;;;5.80;61.95;97820.53;4503254;31;20115;-84
2021/12/29 08:24:25;;;;;;;16.95;6.95;;;;;;;5.90;61.42;97824.34;4503356;31;20088;-83
2021/12/29 08:26:50;;;;;;;19.20;7.75;;;;;;;5.91;61.21;97823.44;4503323;31;20084;-83
2021/12/29 08:29:16;;;;;;;20.12;8.10;;;;;;;5.95;61.11;97829.31;4489298;31;20179;-81
2021/12/29 08:31:41;;;;;;;18.37;7.93;;;;;;;5.96;61.27;97823.22;4489147;31;20152;-81
2021/12/29 08:34:07;;;;;;;16.42;6.70;;;;;;;6.01;61.21;97827.28;4503311;31;20123;-81
2021/12/29 08:36:32;;;;;;;21.23;7.25;;;;;;;6.19;60.73;97822.03;4489049;31;20348;-82
2021/12/29 08:38:58;;;;;;;18.40;7.30;;;;;;;6.31;60.46;97834.47;4503061;31;20100;-82
2021/12/29 08:41:23;;;;;;;20.52;8.05;;;;;;;6.27;60.72;97839.00;4488907;31;20373;-82
2021/12/29 08:43:49;;;;;;;20.92;8.00;;;;;;;6.41;60.26;97846.16;4503027;31;20096;-81
2021/12/29 08:46:18;;;;;;;20.02;8.32;;;;;;;6.44;60.06;97843.34;4489248;31;20106;-81
2021/12/29 08:48:45;;;;;;;21.33;8.55;;;;;;;6.39;60.03;97852.37;4498399;31;20131;-82
2021/12/29 08:51:10;;;;;;;21.90;8.15;;;;;;;6.41;59.83;97851.37;4503324;31;20110;-83
2021/12/29 08:53:36;;;;;;;19.05;8.30;;;;;;;6.48;59.85;97847.50;4502389;31;20139;-82
2021/12/29 08:56:02;;;;;;;20.58;8.30;;;;;;;6.44;59.74;97852.97;4487562;31;20084;-83
2021/12/29 08:58:27;;;;;;;20.27;8.95;;;;;;;6.46;59.72;97859.81;4488657;31;20095;-83
2021/12/29 09:00:54;;;;;;;19.58;8.02;;;;;;;6.42;59.76;97862.69;4503163;31;20453;-82
2021/12/29 09:03:20;;;;;;;19.37;7.78;;;;;;;6.43;59.65;97860.00;4488645;31;20080;-83
2021/12/29 09:05:45;;;;;;;18.10;7.85;;;;;;;6.49;59.85;97867.50;4502746;31;20454;-83
2021/12/29 09:08:11;;;;;;;20.33;8.13;;;;;;;6.57;59.67;97868.88;4502885;31;20444;-83
2021/12/29 09:10:37;;;;;;;21.02;7.80;;;;;;;6.63;59.49;97872.00;4488499;31;20123;-83
2021/12/29 09:13:04;;;;;;;20.80;8.15;;;;;;;6.49;59.78;97875.34;4488461;31;20447;-83
2021/12/29 09:15:29;;;;;;;21.80;8.93;;;;;;;6.25;60.08;97867.00;4488446;31;20092;-83
2021/12/29 09:17:56;;;;;;;19.77;8.80;;;;;;;6.51;60.13;97864.81;4502708;31;20077;-83
2021/12/29 09:20:30;;;;;;;20.05;8.25;;;;;;;6.64;59.78;97859.75;4488476;31;20167;-83
2021/12/29 09:23:06;;;;;;;20.73;8.13;;;;;;;6.65;60.08;97851.81;4489314;31;20068;-83
2021/12/29 09:25:32;;;;;;;20.10;8.32;;;;;;;6.89;59.86;97840.94;4502732;31;20148;-83
2021/12/29 09:27:58;;;;;;;17.85;7.10;;;;;;;7.09;59.55;97839.88;4502682;31;20250;-83
2021/12/29 09:30:26;;;;;;;17.67;7.57;;;;;;;7.20;59.23;97836.63;4475178;31;20125;-83
2021/12/29 09:32:52;;;;;;;16.95;7.10;;;;;;;7.39;58.85;97836.44;4502601;31;20163;-82
2021/12/29 09:35:20;;;;;;;17.48;7.97;;;;;;;7.54;58.52;97827.72;4488133;31;20084;-83
2021/12/29 09:37:46;;;;;;;16.27;6.40;;;;;;;7.73;58.12;97826.66;4488739;31;20099;-82
2021/12/29 09:40:13;;;;;;;15.82;6.78;;;;;;;7.99;57.19;97822.47;4475327;31;20126;-82
2021/12/29 09:42:38;;;;;;;16.65;6.43;;;;;;;8.07;56.91;97818.47;4502806;31;20115;-82
2021/12/29 09:45:05;;;;;;;15.65;6.35;;;;;;;8.16;56.64;97810.97;4488240;31;20076;-83
2021/12/29 09:47:32;;;;;;;16.33;7.03;;;;;;;8.17;56.34;97812.66;4488423;31;20357;-83
2021/12/29 09:49:58;;;;;;;17.80;6.60;;;;;;;8.22;56.43;97811.44;4488438;31;20443;-83
2021/12/29 09:52:23;;;;;;;17.25;6.45;;;;;;;8.20;56.62;97812.47;4502727;31;20120;-83
2021/12/29 09:54:48;;;;;;;16.52;6.32;;;;;;;8.16;56.92;97806.56;4502542;31;20071;-83
2021/12/29 09:57:14;;;;;;;14.90;6.32;;;;;;;8.31;56.80;97802.19;4502389;31;20447;-83
2021/12/29 09:59:39;;;;;;;16.48;6.95;;;;;;;8.41;56.46;97799.84;4501904;31;20088;-83
2021/12/29 10:02:06;;;;;;;15.30;6.57;;;;;;;8.29;56.57;97801.44;4502433;31;20139;-83
2021/12/29 10:04:36;;;;;;;17.45;7.50;;;;;;;8.47;56.36;97796.84;4488339;31;20080;-83
2021/12/29 10:07:15;;;;;;;17.92;7.90;;;;;;;8.48;55.92;97790.69;4488634;31;20083;-83
2021/12/29 10:09:41;;;;;;;19.48;7.93;;;;;;;8.46;56.17;97795.19;4487918;31;20179;-83
2021/12/29 10:12:09;;;;;;;19.42;7.93;;;;;;;8.35;56.54;97787.94;4502160;31;20084;-83
2021/12/29 10:14:36;;;;;;;18.12;7.40;;;;;;;8.39;56.67;97780.72;4502077;31;20076;-83
2021/12/29 10:17:09;;;;;;;15.93;6.87;;;;;;;8.41;56.55;97790.19;4502111;31;20114;-83
2021/12/29 10:19:36;;;;;;;19.17;8.07;;;;;;;8.52;56.31;97792.16;4502183;31;20092;-83
2021/12/29 10:22:02;;;;;;;18.80;8.63;;;;;;;8.69;55.90;97791.09;4487658;31;20096;-83
2021/12/29 10:24:28;;;;;;;21.27;9.55;;;;;;;8.61;56.45;97790.75;4501962;31;20103;-83
2021/12/29 10:26:56;;;;;;;23.95;10.40;;;;;;;8.61;56.36;97791.56;4501865;31;20108;-83
2021/12/29 10:29:22;;;;;;;26.60;11.23;;;;;;;8.60;56.60;97795.16;4501906;31;20107;-83
2021/12/29 10:31:51;;;;;;;24.48;10.80;;;;;;;8.56;56.74;97798.09;4487583;31;20423;-83
2021/12/29 10:34:23;;;;;;;23.90;10.82;;;;;;;8.69;56.57;97804.22;4501798;31;20134;-83
2021/12/29 10:37:06;;;;;;;24.60;10.77;;;;;;;8.64;56.93;97794.03;4501772;31;20100;-83
2021/12/29 10:39:39;;;;;;;24.70;11.65;;;;;;;8.58;57.32;97790.94;4501601;31;20084;-83
2021/12/29 10:42:09;;;;;;;29.00;12.30;;;;;;;8.56;57.40;97792.81;4501506;31;20072;-83
2021/12/29 10:44:34;;;;;;;28.83;12.27;;;;;;;8.60;57.50;97787.28;4501339;31;20088;-83
2021/12/29 10:47:11;;;;;;;28.38;12.05;;;;;;;8.68;57.25;97794.69;4501583;31;20096;-83
2021/12/29 10:49:36;;;;;;;26.50;11.80;;;;;;;8.57;57.45;97789.25;4487363;31;20112;-83
2021/12/29 10:52:02;;;;;;;29.87;13.20;;;;;;;8.55;57.71;97789.34;4501478;31;20099;-83
2021/12/29 10:54:28;;;;;;;29.83;13.25;;;;;;;8.53;57.75;97796.47;4501514;31;20364;-83
2021/12/29 10:57:04;;;;;;;31.77;14.25;;;;;;;8.49;58.16;97799.38;4501382;31;20104;-83
2021/12/29 10:59:32;;;;;;;32.72;14.87;;;;;;;8.44;58.34;97797.91;4501517;31;20645;-83
2021/12/29 11:01:58;;;;;;;31.87;13.82;;;;;;;8.34;58.60;97794.09;4493790;31;20096;-82
2021/12/29 11:04:24;;;;;;;29.98;13.00;;;;;;;8.40;58.52;97798.13;4501324;31;20403;-82
2021/12/29 11:06:51;;;;;;;30.15;13.20;;;;;;;8.19;59.02;97806.41;4487307;31;20100;-83
2021/12/29 11:09:37;;;;;;;28.83;13.10;;;;;;;8.15;59.53;97802.28;4474839;31;20130;-82
2021/12/29 11:12:12;;;;;;;28.65;12.65;;;;;;;8.14;59.53;97807.59;4493876;31;20087;-82
2021/12/29 11:14:42;;;;;;;28.70;12.80;;;;;;;7.83;60.32;97805.03;4500281;31;20080;-81
2021/12/29 11:17:11;;;;;;;26.45;12.52;;;;;;;7.92;60.33;97802.78;4487683;32;20392;-81
2021/12/29 11:19:39;;;;;;;32.10;13.00;;;;;;;7.96;60.25;97804.28;4487781;32;20463;-82
2021/12/29 11:22:12;;;;;;;;;;;;;;;7.75;60.74;97801.19;4492955;31;20096;-82
2021/12/29 11:24:38;;;;;;;29.50;12.25;;;;;;;7.86;60.87;97810.09;4485693;32;19980;-79
2021/12/29 11:27:18;;;;;;;27.23;11.48;;;;;;;7.63;61.13;97793.09;4482927;31;20448;-80
2021/12/29 11:29:58;;;;;;;27.30;11.30;;;;;;;7.70;61.42;97800.59;4489428;31;20519;-80
2021/12/29 11:32:30;;;;;;;28.20;13.27;;;;;;;7.78;61.51;97801.81;4503584;31;20103;-80
2021/12/29 11:35:04;;;;;;;31.75;12.55;;;;;;;7.77;61.63;97794.91;4486520;31;20089;-79
2021/12/29 11:37:30;;;;;;;27.87;12.18;;;;;;;7.86;61.72;97802.25;4479367;31;20373;-79
